sensor_id;sensor_type;location;lat;lon;timestamp;temperature;humidity
2623;DHT22;1321;48.690;9.022;2022-08-14T00:02:23;24.30;1.00
2623;DHT22;1321;48.690;9.022;2022-08-14T00:04:53;24.30;1.00
2623;DHT22;1321;48.690;9.022;2022-08-14T00:07:22;24.20;1.00
2623;DHT22;1321;48.690;9.022;2022-08-14T00:09:52;24.20;1.00
2623;DHT22;1321;48.690;9.022;2022-08-14T00:12:43;24.30;1.00
2623;DHT22;1321;48.690;9.022;2022-08-14T00:15:21;24.20;1.00
2623;DHT22;1321;48.690;9.022;2022-08-14T00:17:50;24.20;1.00
2623;DHT22;1321;48.690;9.022;2022-08-14T00:20:23;24.10;1.00
2623;DHT22;1321;48.690;9.022;2022-08-14T00:23:04;24.10;1.00
2623;DHT22;1321;48.690;9.022;2022-08-14T00:25:39;24.10;1.00
2623;DHT22;1321;48.690;9.022;2022-08-14T00:28:10;24.10;1.00
2623;DHT22;1321;48.690;9.022;2022-08-14T00:30:44;24.10;1.00
2623;DHT22;1321;48.690;9.022;2022-08-14T00:33:13;24.10;1.00
2623;DHT22;1321;48.690;9.022;2022-08-14T00:35:43;24.00;1.00
2623;DHT22;1321;48.690;9.022;2022-08-14T00:38:32;24.00;1.00
2623;DHT22;1321;48.690;9.022;2022-08-14T00:41:03;24.00;1.00
2623;DHT22;1321;48.690;9.022;2022-08-14T00:43:37;23.90;1.00
2623;DHT22;1321;48.690;9.022;2022-08-14T00:46:10;23.90;1.00
2623;DHT22;1321;48.690;9.022;2022-08-14T00:48:58;23.90;1.00
2623;DHT22;1321;48.690;9.022;2022-08-14T00:51:28;23.90;1.00
2623;DHT22;1321;48.690;9.022;2022-08-14T00:54:06;23.80;1.00
2623;DHT22;1321;48.690;9.022;2022-08-14T00:56:47;23.80;1.00
2623;DHT22;1321;48.690;9.022;2022-08-14T00:59:16;23.80;1.00
2623;DHT22;1321;48.690;9.022;2022-08-14T01:01:44;23.70;1.00
2623;DHT22;1321;48.690;9.022;2022-08-14T01:04:15;23.70;1.00
2623;DHT22;1321;48.690;9.022;2022-08-14T01:07:03;23.70;1.00
2623;DHT22;1321;48.690;9.022;2022-08-14T01:09:36;23.70;1.00
2623;DHT22;1321;48.690;9.022;2022-08-14T01:12:11;23.60;1.00
2623;DHT22;1321;48.690;9.022;2022-08-14T01:14:53;23.60;1.00
2623;DHT22;1321;48.690;9.022;2022-08-14T01:17:25;23.60;1.00
2623;DHT22;1321;48.690;9.022;2022-08-14T01:20:18;23.60;1.00
2623;DHT22;1321;48.690;9.022;2022-08-14T01:23:09;23.60;1.00
2623;DHT22;1321;48.690;9.022;2022-08-14T01:25:46;23.60;1.00
2623;DHT22;1321;48.690;9.022;2022-08-14T01:28:15;23.60;1.00
2623;DHT22;1321;48.690;9.022;2022-08-14T01:31:05;23.50;1.00
2623;DHT22;1321;48.690;9.022;2022-08-14T01:33:35;23.50;1.00
2623;DHT22;1321;48.690;9.022;2022-08-14T01:36:27;23.50;1.00
2623;DHT22;1321;48.690;9.022;2022-08-14T01:39:06;23.40;1.00
2623;DHT22;1321;48.690;9.022;2022-08-14T01:41:40;23.30;1.00
2623;DHT22;1321;48.690;9.022;2022-08-14T01:44:12;23.30;1.00
2623;DHT22;1321;48.690;9.022;2022-08-14T01:47:02;23.30;1.00
2623;DHT22;1321;48.690;9.022;2022-08-14T01:49:37;23.20;1.00
2623;DHT22;1321;48.690;9.022;2022-08-14T01:52:25;23.20;1.00
2623;DHT22;1321;48.690;9.022;2022-08-14T01:55:15;23.20;1.00
2623;DHT22;1321;48.690;9.022;2022-08-14T01:57:44;23.10;1.00
2623;DHT22;1321;48.690;9.022;2022-08-14T02:00:28;23.10;1.00
2623;DHT22;1321;48.690;9.022;2022-08-14T02:03:02;23.10;1.00
2623;DHT22;1321;48.690;9.022;2022-08-14T02:05:33;23.00;1.00
2623;DHT22;1321;48.690;9.022;2022-08-14T02:08:05;23.00;1.00
2623;DHT22;1321;48.690;9.022;2022-08-14T02:10:38;23.00;1.00
2623;DHT22;1321;48.690;9.022;2022-08-14T02:13:14;22.90;1.00
2623;DHT22;1321;48.690;9.022;2022-08-14T02:15:45;22.90;1.00
2623;DHT22;1321;48.690;9.022;2022-08-14T02:18:14;22.90;1.00
2623;DHT22;1321;48.690;9.022;2022-08-14T02:20:44;22.90;1.00
2623;DHT22;1321;48.690;9.022;2022-08-14T02:23:17;22.80;1.00
2623;DHT22;1321;48.690;9.022;2022-08-14T02:26:00;22.80;1.00
2623;DHT22;1321;48.690;9.022;2022-08-14T02:28:54;22.80;1.00
2623;DHT22;1321;48.690;9.022;2022-08-14T02:31:27;22.70;1.00
2623;DHT22;1321;48.690;9.022;2022-08-14T02:34:14;22.80;1.00
2623;DHT22;1321;48.690;9.022;2022-08-14T02:36:50;22.70;1.00
2623;DHT22;1321;48.690;9.022;2022-08-14T02:39:34;22.70;1.00
2623;DHT22;1321;48.690;9.022;2022-08-14T02:42:06;22.70;1.00
2623;DHT22;1321;48.690;9.022;2022-08-14T02:44:40;22.70;1.00
2623;DHT22;1321;48.690;9.022;2022-08-14T02:47:16;22.70;1.00
2623;DHT22;1321;48.690;9.022;2022-08-14T02:49:47;22.60;1.00
2623;DHT22;1321;48.690;9.022;2022-08-14T02:52:21;22.60;1.00
2623;DHT22;1321;48.690;9.022;2022-08-14T02:55:09;22.50;1.00
2623;DHT22;1321;48.690;9.022;2022-08-14T02:57:48;22.50;1.00
2623;DHT22;1321;48.690;9.022;2022-08-14T03:00:31;22.50;1.00
2623;DHT22;1321;48.690;9.022;2022-08-14T03:03:05;22.50;1.00
2623;DHT22;1321;48.690;9.022;2022-08-14T03:05:34;22.40;1.00
2623;DHT22;1321;48.690;9.022;2022-08-14T03:08:09;22.40;1.00
2623;DHT22;1321;48.690;9.022;2022-08-14T03:10:41;22.40;1.00
2623;DHT22;1321;48.690;9.022;2022-08-14T03:13:17;22.40;1.00
2623;DHT22;1321;48.690;9.022;2022-08-14T03:15:48;22.40;1.00
2623;DHT22;1321;48.690;9.022;2022-08-14T03:18:24;22.30;1.00
2623;DHT22;1321;48.690;9.022;2022-08-14T03:20:59;22.30;1.00
2623;DHT22;1321;48.690;9.022;2022-08-14T03:23:28;22.30;1.00
2623;DHT22;1321;48.690;9.022;2022-08-14T03:26:02;22.30;1.00
2623;DHT22;1321;48.690;9.022;2022-08-14T03:28:34;22.20;1.00
2623;DHT22;1321;48.690;9.022;2022-08-14T03:31:09;22.20;1.00
2623;DHT22;1321;48.690;9.022;2022-08-14T03:33:40;22.20;1.00
2623;DHT22;1321;48.690;9.022;2022-08-14T03:36:10;22.10;1.00
2623;DHT22;1321;48.690;9.022;2022-08-14T03:38:59;22.10;1.00
2623;DHT22;1321;48.690;9.022;2022-08-14T03:41:42;22.20;1.00
2623;DHT22;1321;48.690;9.022;2022-08-14T03:44:13;22.10;1.00
2623;DHT22;1321;48.690;9.022;2022-08-14T03:47:01;22.20;1.00
2623;DHT22;1321;48.690;9.022;2022-08-14T03:49:31;22.10;1.00
2623;DHT22;1321;48.690;9.022;2022-08-14T03:52:00;22.10;1.00
2623;DHT22;1321;48.690;9.022;2022-08-14T03:54:43;22.00;1.00
2623;DHT22;1321;48.690;9.022;2022-08-14T03:57:18;22.00;1.00
2623;DHT22;1321;48.690;9.022;2022-08-14T03:59:50;21.90;1.00
2623;DHT22;1321;48.690;9.022;2022-08-14T04:02:18;21.90;1.00
2623;DHT22;1321;48.690;9.022;2022-08-14T04:05:04;21.90;1.00
2623;DHT22;1321;48.690;9.022;2022-08-14T04:07:39;21.80;1.00
2623;DHT22;1321;48.690;9.022;2022-08-14T04:10:27;21.80;1.00
2623;DHT22;1321;48.690;9.022;2022-08-14T04:12:58;21.80;1.00
2623;DHT22;1321;48.690;9.022;2022-08-14T04:15:32;21.70;1.00
2623;DHT22;1321;48.690;9.022;2022-08-14T04:18:20;21.70;1.00
2623;DHT22;1321;48.690;9.022;2022-08-14T04:20:48;21.70;1.00
2623;DHT22;1321;48.690;9.022;2022-08-14T04:23:21;21.70;1.00
2623;DHT22;1321;48.690;9.022;2022-08-14T04:26:00;21.60;1.00
2623;DHT22;1321;48.690;9.022;2022-08-14T04:28:29;21.60;1.00
2623;DHT22;1321;48.690;9.022;2022-08-14T04:31:20;21.60;1.00
2623;DHT22;1321;48.690;9.022;2022-08-14T04:34:09;21.50;1.00
2623;DHT22;1321;48.690;9.022;2022-08-14T04:36:50;21.40;1.00
2623;DHT22;1321;48.690;9.022;2022-08-14T04:39:36;21.20;1.00
2623;DHT22;1321;48.690;9.022;2022-08-14T04:42:24;21.30;1.00
2623;DHT22;1321;48.690;9.022;2022-08-14T04:45:18;21.40;1.00
2623;DHT22;1321;48.690;9.022;2022-08-14T04:47:48;21.40;1.00
2623;DHT22;1321;48.690;9.022;2022-08-14T04:50:37;21.50;1.00
2623;DHT22;1321;48.690;9.022;2022-08-14T04:53:13;21.60;1.00
2623;DHT22;1321;48.690;9.022;2022-08-14T04:55:43;21.60;1.00
2623;DHT22;1321;48.690;9.022;2022-08-14T04:58:19;21.60;1.00
2623;DHT22;1321;48.690;9.022;2022-08-14T05:00:59;21.70;1.00
2623;DHT22;1321;48.690;9.022;2022-08-14T05:03:32;21.80;1.00
2623;DHT22;1321;48.690;9.022;2022-08-14T05:06:05;21.90;1.00
2623;DHT22;1321;48.690;9.022;2022-08-14T05:08:53;21.90;1.00
2623;DHT22;1321;48.690;9.022;2022-08-14T05:11:26;21.90;1.00
2623;DHT22;1321;48.690;9.022;2022-08-14T05:13:54;21.90;1.00
2623;DHT22;1321;48.690;9.022;2022-08-14T05:16:43;21.90;1.00
2623;DHT22;1321;48.690;9.022;2022-08-14T05:19:15;21.90;1.00
2623;DHT22;1321;48.690;9.022;2022-08-14T05:21:53;22.00;1.00
2623;DHT22;1321;48.690;9.022;2022-08-14T05:24:43;22.00;1.00
2623;DHT22;1321;48.690;9.022;2022-08-14T05:27:16;22.00;1.00
2623;DHT22;1321;48.690;9.022;2022-08-14T05:29:50;22.00;1.00
2623;DHT22;1321;48.690;9.022;2022-08-14T05:32:19;22.10;1.00
2623;DHT22;1321;48.690;9.022;2022-08-14T05:34:50;22.10;1.00
2623;DHT22;1321;48.690;9.022;2022-08-14T05:37:18;22.10;1.00
2623;DHT22;1321;48.690;9.022;2022-08-14T05:39:46;22.20;1.00
2623;DHT22;1321;48.690;9.022;2022-08-14T05:42:14;22.20;1.00
2623;DHT22;1321;48.690;9.022;2022-08-14T05:44:53;22.20;1.00
2623;DHT22;1321;48.690;9.022;2022-08-14T05:47:22;22.20;1.00
2623;DHT22;1321;48.690;9.022;2022-08-14T05:50:00;22.30;1.00
2623;DHT22;1321;48.690;9.022;2022-08-14T05:52:30;22.30;1.00
2623;DHT22;1321;48.690;9.022;2022-08-14T05:55:07;22.30;1.00
2623;DHT22;1321;48.690;9.022;2022-08-14T05:57:55;22.30;1.00
2623;DHT22;1321;48.690;9.022;2022-08-14T06:00:27;22.40;1.00
2623;DHT22;1321;48.690;9.022;2022-08-14T06:03:06;22.40;1.00
2623;DHT22;1321;48.690;9.022;2022-08-14T06:05:36;22.50;1.00
2623;DHT22;1321;48.690;9.022;2022-08-14T06:08:05;22.50;1.00
2623;DHT22;1321;48.690;9.022;2022-08-14T06:11:03;22.50;1.00
2623;DHT22;1321;48.690;9.022;2022-08-14T06:13:33;22.60;1.00
2623;DHT22;1321;48.690;9.022;2022-08-14T06:16:13;22.70;1.00
2623;DHT22;1321;48.690;9.022;2022-08-14T06:18:45;22.70;1.00
2623;DHT22;1321;48.690;9.022;2022-08-14T06:21:20;22.80;1.00
2623;DHT22;1321;48.690;9.022;2022-08-14T06:23:48;22.90;1.00
2623;DHT22;1321;48.690;9.022;2022-08-14T06:26:17;23.00;1.00
2623;DHT22;1321;48.690;9.022;2022-08-14T06:28:48;23.20;1.00
2623;DHT22;1321;48.690;9.022;2022-08-14T06:31:18;23.30;1.00
2623;DHT22;1321;48.690;9.022;2022-08-14T06:33:47;23.40;1.00
2623;DHT22;1321;48.690;9.022;2022-08-14T06:36:37;23.50;1.00
2623;DHT22;1321;48.690;9.022;2022-08-14T06:39:05;23.70;1.00
2623;DHT22;1321;48.690;9.022;2022-08-14T06:41:36;23.90;1.00
2623;DHT22;1321;48.690;9.022;2022-08-14T06:44:26;24.10;1.00
2623;DHT22;1321;48.690;9.022;2022-08-14T06:46:59;24.20;1.00
2623;DHT22;1321;48.690;9.022;2022-08-14T06:49:27;24.50;1.00
2623;DHT22;1321;48.690;9.022;2022-08-14T06:51:57;24.70;1.50
2623;DHT22;1321;48.690;9.022;2022-08-14T06:54:27;24.90;2.20
2623;DHT22;1321;48.690;9.022;2022-08-14T06:56:57;25.00;2.70
2623;DHT22;1321;48.690;9.022;2022-08-14T06:59:26;25.20;3.20
2623;DHT22;1321;48.690;9.022;2022-08-14T07:01:55;25.30;2.80
2623;DHT22;1321;48.690;9.022;2022-08-14T07:04:44;25.40;5.50
2623;DHT22;1321;48.690;9.022;2022-08-14T07:07:38;25.50;6.50
2623;DHT22;1321;48.690;9.022;2022-08-14T07:10:09;25.60;7.20
2623;DHT22;1321;48.690;9.022;2022-08-14T07:12:43;25.70;5.60
2623;DHT22;1321;48.690;9.022;2022-08-14T07:15:28;25.80;2.60
2623;DHT22;1321;48.690;9.022;2022-08-14T07:17:59;26.00;5.10
2623;DHT22;1321;48.690;9.022;2022-08-14T07:20:28;26.10;4.40
2623;DHT22;1321;48.690;9.022;2022-08-14T07:23:00;26.30;6.20
2623;DHT22;1321;48.690;9.022;2022-08-14T07:25:38;26.40;5.40
2623;DHT22;1321;48.690;9.022;2022-08-14T07:28:10;26.40;5.70
2623;DHT22;1321;48.690;9.022;2022-08-14T07:30:46;26.50;5.20
2623;DHT22;1321;48.690;9.022;2022-08-14T07:33:18;26.50;7.00
2623;DHT22;1321;48.690;9.022;2022-08-14T07:35:57;26.60;5.70
2623;DHT22;1321;48.690;9.022;2022-08-14T07:38:27;26.60;7.20
2623;DHT22;1321;48.690;9.022;2022-08-14T07:41:04;26.70;8.50
2623;DHT22;1321;48.690;9.022;2022-08-14T07:43:41;26.70;8.10
2623;DHT22;1321;48.690;9.022;2022-08-14T07:46:21;26.80;19.50
2623;DHT22;1321;48.690;9.022;2022-08-14T07:48:57;26.90;9.60
2623;DHT22;1321;48.690;9.022;2022-08-14T07:51:25;26.90;7.80
2623;DHT22;1321;48.690;9.022;2022-08-14T07:54:01;26.90;9.40
2623;DHT22;1321;48.690;9.022;2022-08-14T07:56:36;26.90;7.30
2623;DHT22;1321;48.690;9.022;2022-08-14T07:59:14;27.00;9.10
2623;DHT22;1321;48.690;9.022;2022-08-14T08:01:44;27.00;6.30
2623;DHT22;1321;48.690;9.022;2022-08-14T08:04:22;26.90;6.60
2623;DHT22;1321;48.690;9.022;2022-08-14T08:06:53;27.00;7.30
2623;DHT22;1321;48.690;9.022;2022-08-14T08:09:25;27.00;6.30
2623;DHT22;1321;48.690;9.022;2022-08-14T08:11:59;27.00;7.10
2623;DHT22;1321;48.690;9.022;2022-08-14T08:14:35;27.00;5.50
2623;DHT22;1321;48.690;9.022;2022-08-14T08:17:24;27.00;7.50
2623;DHT22;1321;48.690;9.022;2022-08-14T08:20:00;27.10;6.90
2623;DHT22;1321;48.690;9.022;2022-08-14T08:22:29;27.00;6.40
2623;DHT22;1321;48.690;9.022;2022-08-14T08:24:59;27.00;5.60
2623;DHT22;1321;48.690;9.022;2022-08-14T08:27:28;27.00;6.00
2623;DHT22;1321;48.690;9.022;2022-08-14T08:30:03;27.00;6.70
2623;DHT22;1321;48.690;9.022;2022-08-14T08:32:39;27.10;5.50
2623;DHT22;1321;48.690;9.022;2022-08-14T08:35:16;27.20;4.70
2623;DHT22;1321;48.690;9.022;2022-08-14T08:37:44;27.10;5.50
2623;DHT22;1321;48.690;9.022;2022-08-14T08:40:22;27.20;7.80
2623;DHT22;1321;48.690;9.022;2022-08-14T08:42:58;27.20;5.30
2623;DHT22;1321;48.690;9.022;2022-08-14T08:45:27;27.10;5.00
2623;DHT22;1321;48.690;9.022;2022-08-14T08:47:55;27.10;4.80
2623;DHT22;1321;48.690;9.022;2022-08-14T08:50:27;27.10;3.70
2623;DHT22;1321;48.690;9.022;2022-08-14T08:52:58;27.20;4.30
2623;DHT22;1321;48.690;9.022;2022-08-14T08:55:31;27.20;4.20
2623;DHT22;1321;48.690;9.022;2022-08-14T08:58:02;27.20;4.60
2623;DHT22;1321;48.690;9.022;2022-08-14T09:00:44;27.20;4.30
2623;DHT22;1321;48.690;9.022;2022-08-14T09:03:16;27.30;4.90
2623;DHT22;1321;48.690;9.022;2022-08-14T09:05:51;27.30;4.90
2623;DHT22;1321;48.690;9.022;2022-08-14T09:08:23;27.30;5.00
2623;DHT22;1321;48.690;9.022;2022-08-14T09:11:00;27.30;5.20
2623;DHT22;1321;48.690;9.022;2022-08-14T09:13:48;27.30;4.60
2623;DHT22;1321;48.690;9.022;2022-08-14T09:16:19;27.30;5.20
2623;DHT22;1321;48.690;9.022;2022-08-14T09:18:50;27.40;5.90
2623;DHT22;1321;48.690;9.022;2022-08-14T09:21:21;27.50;8.80
2623;DHT22;1321;48.690;9.022;2022-08-14T09:23:56;27.50;17.20
2623;DHT22;1321;48.690;9.022;2022-08-14T09:26:46;27.60;7.40
2623;DHT22;1321;48.690;9.022;2022-08-14T09:29:16;27.40;5.40
2623;DHT22;1321;48.690;9.022;2022-08-14T09:31:52;27.40;4.30
2623;DHT22;1321;48.690;9.022;2022-08-14T09:34:38;27.50;6.90
2623;DHT22;1321;48.690;9.022;2022-08-14T09:37:38;27.60;5.80
2623;DHT22;1321;48.690;9.022;2022-08-14T09:40:18;27.70;6.80
2623;DHT22;1321;48.690;9.022;2022-08-14T09:42:59;27.80;7.40
2623;DHT22;1321;48.690;9.022;2022-08-14T09:45:33;27.80;7.40
2623;DHT22;1321;48.690;9.022;2022-08-14T09:48:20;27.80;7.20
2623;DHT22;1321;48.690;9.022;2022-08-14T09:50:57;27.80;8.10
2623;DHT22;1321;48.690;9.022;2022-08-14T09:53:39;27.90;9.20
2623;DHT22;1321;48.690;9.022;2022-08-14T09:56:30;28.00;8.90
2623;DHT22;1321;48.690;9.022;2022-08-14T09:59:09;28.00;11.00
2623;DHT22;1321;48.690;9.022;2022-08-14T10:01:42;28.10;7.90
2623;DHT22;1321;48.690;9.022;2022-08-14T10:04:22;28.10;7.70
2623;DHT22;1321;48.690;9.022;2022-08-14T10:07:02;28.10;8.60
2623;DHT22;1321;48.690;9.022;2022-08-14T10:09:31;28.10;7.10
2623;DHT22;1321;48.690;9.022;2022-08-14T10:12:01;28.00;7.90
2623;DHT22;1321;48.690;9.022;2022-08-14T10:14:33;28.10;7.70
2623;DHT22;1321;48.690;9.022;2022-08-14T10:17:04;28.20;9.20
2623;DHT22;1321;48.690;9.022;2022-08-14T10:19:34;28.30;9.30
2623;DHT22;1321;48.690;9.022;2022-08-14T10:22:13;28.30;9.00
2623;DHT22;1321;48.690;9.022;2022-08-14T10:25:09;28.30;11.20
2623;DHT22;1321;48.690;9.022;2022-08-14T10:27:41;28.40;10.10
2623;DHT22;1321;48.690;9.022;2022-08-14T10:30:16;28.40;10.90
2623;DHT22;1321;48.690;9.022;2022-08-14T10:32:51;28.40;9.00
2623;DHT22;1321;48.690;9.022;2022-08-14T10:35:21;28.40;10.80
2623;DHT22;1321;48.690;9.022;2022-08-14T10:37:59;28.40;10.30
2623;DHT22;1321;48.690;9.022;2022-08-14T10:40:33;28.40;9.40
2623;DHT22;1321;48.690;9.022;2022-08-14T10:43:18;28.40;9.90
2623;DHT22;1321;48.690;9.022;2022-08-14T10:45:58;28.40;7.70
2623;DHT22;1321;48.690;9.022;2022-08-14T10:48:57;28.30;8.00
2623;DHT22;1321;48.690;9.022;2022-08-14T10:51:28;28.40;8.30
2623;DHT22;1321;48.690;9.022;2022-08-14T10:54:07;28.50;8.60
2623;DHT22;1321;48.690;9.022;2022-08-14T10:56:55;28.50;9.60
2623;DHT22;1321;48.690;9.022;2022-08-14T10:59:24;28.60;10.50
2623;DHT22;1321;48.690;9.022;2022-08-14T11:02:15;28.70;11.00
2623;DHT22;1321;48.690;9.022;2022-08-14T11:05:08;28.70;7.70
2623;DHT22;1321;48.690;9.022;2022-08-14T11:07:42;28.60;6.60
2623;DHT22;1321;48.690;9.022;2022-08-14T11:10:24;28.50;6.60
2623;DHT22;1321;48.690;9.022;2022-08-14T11:12:55;28.60;7.20
2623;DHT22;1321;48.690;9.022;2022-08-14T11:15:27;28.70;7.90
2623;DHT22;1321;48.690;9.022;2022-08-14T11:17:59;28.80;8.90
2623;DHT22;1321;48.690;9.022;2022-08-14T11:20:29;28.90;10.60
2623;DHT22;1321;48.690;9.022;2022-08-14T11:22:59;28.90;8.30
2623;DHT22;1321;48.690;9.022;2022-08-14T11:25:29;28.90;7.60
2623;DHT22;1321;48.690;9.022;2022-08-14T11:28:11;29.00;8.70
2623;DHT22;1321;48.690;9.022;2022-08-14T11:30:47;29.10;9.50
2623;DHT22;1321;48.690;9.022;2022-08-14T11:33:26;29.10;9.70
2623;DHT22;1321;48.690;9.022;2022-08-14T11:35:58;29.20;10.30
2623;DHT22;1321;48.690;9.022;2022-08-14T11:38:34;29.20;11.00
2623;DHT22;1321;48.690;9.022;2022-08-14T11:41:04;29.20;10.10
2623;DHT22;1321;48.690;9.022;2022-08-14T11:43:38;29.20;10.90
2623;DHT22;1321;48.690;9.022;2022-08-14T11:46:08;29.30;9.20
2623;DHT22;1321;48.690;9.022;2022-08-14T11:48:57;29.30;9.10
2623;DHT22;1321;48.690;9.022;2022-08-14T11:51:31;29.30;10.10
2623;DHT22;1321;48.690;9.022;2022-08-14T11:54:16;29.30;9.10
2623;DHT22;1321;48.690;9.022;2022-08-14T11:56:46;29.40;9.50
2623;DHT22;1321;48.690;9.022;2022-08-14T11:59:17;29.40;8.90
2623;DHT22;1321;48.690;9.022;2022-08-14T12:02:08;29.50;9.90
2623;DHT22;1321;48.690;9.022;2022-08-14T12:04:57;29.50;19.90
2623;DHT22;1321;48.690;9.022;2022-08-14T12:07:26;29.60;10.50
2623;DHT22;1321;48.690;9.022;2022-08-14T12:09:58;29.60;10.20
2623;DHT22;1321;48.690;9.022;2022-08-14T12:12:46;29.50;8.70
2623;DHT22;1321;48.690;9.022;2022-08-14T12:15:31;29.50;8.70
2623;DHT22;1321;48.690;9.022;2022-08-14T12:18:02;29.50;5.80
2623;DHT22;1321;48.690;9.022;2022-08-14T12:20:33;29.50;6.70
2623;DHT22;1321;48.690;9.022;2022-08-14T12:23:20;29.50;6.00
2623;DHT22;1321;48.690;9.022;2022-08-14T12:26:01;29.60;6.90
2623;DHT22;1321;48.690;9.022;2022-08-14T12:28:50;29.60;6.20
2623;DHT22;1321;48.690;9.022;2022-08-14T12:31:26;29.70;8.80
2623;DHT22;1321;48.690;9.022;2022-08-14T12:34:03;29.70;9.70
2623;DHT22;1321;48.690;9.022;2022-08-14T12:36:38;29.60;10.00
2623;DHT22;1321;48.690;9.022;2022-08-14T12:39:17;29.80;9.50
2623;DHT22;1321;48.690;9.022;2022-08-14T12:41:48;29.90;10.50
2623;DHT22;1321;48.690;9.022;2022-08-14T12:44:28;29.90;9.80
2623;DHT22;1321;48.690;9.022;2022-08-14T12:47:03;29.90;8.30
2623;DHT22;1321;48.690;9.022;2022-08-14T12:49:32;29.90;7.30
2623;DHT22;1321;48.690;9.022;2022-08-14T12:52:03;30.00;10.10
2623;DHT22;1321;48.690;9.022;2022-08-14T12:54:43;30.00;7.50
2623;DHT22;1321;48.690;9.022;2022-08-14T12:57:35;30.10;9.20
2623;DHT22;1321;48.690;9.022;2022-08-14T13:00:15;30.10;7.60
2623;DHT22;1321;48.690;9.022;2022-08-14T13:02:52;30.10;9.10
2623;DHT22;1321;48.690;9.022;2022-08-14T13:05:23;30.10;7.60
2623;DHT22;1321;48.690;9.022;2022-08-14T13:07:55;30.10;8.20
2623;DHT22;1321;48.690;9.022;2022-08-14T13:10:26;30.10;7.80
2623;DHT22;1321;48.690;9.022;2022-08-14T13:13:33;30.10;8.20
2623;DHT22;1321;48.690;9.022;2022-08-14T13:16:13;30.20;7.90
2623;DHT22;1321;48.690;9.022;2022-08-14T13:19:13;30.20;7.30
2623;DHT22;1321;48.690;9.022;2022-08-14T13:21:43;30.20;7.60
2623;DHT22;1321;48.690;9.022;2022-08-14T13:24:33;30.20;18.00
2623;DHT22;1321;48.690;9.022;2022-08-14T13:27:05;30.20;6.10
2623;DHT22;1321;48.690;9.022;2022-08-14T13:29:39;30.10;6.30
2623;DHT22;1321;48.690;9.022;2022-08-14T13:32:13;30.20;4.90
2623;DHT22;1321;48.690;9.022;2022-08-14T13:34:42;30.20;5.80
2623;DHT22;1321;48.690;9.022;2022-08-14T13:37:13;30.20;6.70
2623;DHT22;1321;48.690;9.022;2022-08-14T13:39:47;30.20;5.50
2623;DHT22;1321;48.690;9.022;2022-08-14T13:42:24;30.20;5.10
2623;DHT22;1321;48.690;9.022;2022-08-14T13:44:59;30.20;7.10
2623;DHT22;1321;48.690;9.022;2022-08-14T13:47:30;30.20;5.90
2623;DHT22;1321;48.690;9.022;2022-08-14T13:50:01;30.20;4.90
2623;DHT22;1321;48.690;9.022;2022-08-14T13:52:34;30.30;6.00
2623;DHT22;1321;48.690;9.022;2022-08-14T13:55:22;30.30;6.00
2623;DHT22;1321;48.690;9.022;2022-08-14T13:57:57;30.30;6.90
2623;DHT22;1321;48.690;9.022;2022-08-14T14:00:32;30.40;6.10
2623;DHT22;1321;48.690;9.022;2022-08-14T14:03:03;30.40;6.80
2623;DHT22;1321;48.690;9.022;2022-08-14T14:05:36;30.40;6.00
2623;DHT22;1321;48.690;9.022;2022-08-14T14:08:20;30.40;6.60
2623;DHT22;1321;48.690;9.022;2022-08-14T14:11:10;30.40;6.10
2623;DHT22;1321;48.690;9.022;2022-08-14T14:13:42;30.40;8.20
2623;DHT22;1321;48.690;9.022;2022-08-14T14:16:13;30.40;8.50
2623;DHT22;1321;48.690;9.022;2022-08-14T14:18:56;30.40;8.20
2623;DHT22;1321;48.690;9.022;2022-08-14T14:21:35;30.50;8.50
2623;DHT22;1321;48.690;9.022;2022-08-14T14:24:08;30.50;6.30
2623;DHT22;1321;48.690;9.022;2022-08-14T14:26:45;30.50;5.90
2623;DHT22;1321;48.690;9.022;2022-08-14T14:29:18;30.50;5.80
2623;DHT22;1321;48.690;9.022;2022-08-14T14:31:52;30.40;4.50
2623;DHT22;1321;48.690;9.022;2022-08-14T14:34:23;30.50;6.00
2623;DHT22;1321;48.690;9.022;2022-08-14T14:36:57;30.50;6.70
2623;DHT22;1321;48.690;9.022;2022-08-14T14:39:30;30.50;6.90
2623;DHT22;1321;48.690;9.022;2022-08-14T14:42:20;30.50;6.30
2623;DHT22;1321;48.690;9.022;2022-08-14T14:45:03;30.60;6.20
2623;DHT22;1321;48.690;9.022;2022-08-14T14:47:32;30.50;5.90
2623;DHT22;1321;48.690;9.022;2022-08-14T14:50:01;30.60;6.10
2623;DHT22;1321;48.690;9.022;2022-08-14T14:52:33;30.60;4.20
2623;DHT22;1321;48.690;9.022;2022-08-14T14:55:07;30.50;6.60
2623;DHT22;1321;48.690;9.022;2022-08-14T14:57:40;30.60;5.00
2623;DHT22;1321;48.690;9.022;2022-08-14T15:00:12;30.60;5.50
2623;DHT22;1321;48.690;9.022;2022-08-14T15:02:48;30.50;5.80
2623;DHT22;1321;48.690;9.022;2022-08-14T15:05:18;30.60;4.50
2623;DHT22;1321;48.690;9.022;2022-08-14T15:07:48;30.60;4.30
2623;DHT22;1321;48.690;9.022;2022-08-14T15:10:19;30.60;4.10
2623;DHT22;1321;48.690;9.022;2022-08-14T15:12:56;30.60;5.20
2623;DHT22;1321;48.690;9.022;2022-08-14T15:15:29;30.60;4.60
2623;DHT22;1321;48.690;9.022;2022-08-14T15:17:58;30.60;6.40
2623;DHT22;1321;48.690;9.022;2022-08-14T15:20:27;30.60;6.60
2623;DHT22;1321;48.690;9.022;2022-08-14T15:22:58;30.50;7.60
2623;DHT22;1321;48.690;9.022;2022-08-14T15:25:38;30.60;5.90
2623;DHT22;1321;48.690;9.022;2022-08-14T15:28:09;30.60;14.90
2623;DHT22;1321;48.690;9.022;2022-08-14T15:30:46;30.60;4.70
2623;DHT22;1321;48.690;9.022;2022-08-14T15:33:25;30.60;6.40
2623;DHT22;1321;48.690;9.022;2022-08-14T15:36:31;30.60;3.80
2623;DHT22;1321;48.690;9.022;2022-08-14T15:39:01;30.60;5.30
2623;DHT22;1321;48.690;9.022;2022-08-14T15:41:29;30.60;5.00
2623;DHT22;1321;48.690;9.022;2022-08-14T15:44:09;30.60;4.00
2623;DHT22;1321;48.690;9.022;2022-08-14T15:46:53;30.50;5.30
2623;DHT22;1321;48.690;9.022;2022-08-14T15:49:25;30.50;3.30
2623;DHT22;1321;48.690;9.022;2022-08-14T15:52:01;30.50;2.70
2623;DHT22;1321;48.690;9.022;2022-08-14T15:54:31;30.50;3.60
2623;DHT22;1321;48.690;9.022;2022-08-14T15:57:01;30.50;1.90
2623;DHT22;1321;48.690;9.022;2022-08-14T15:59:31;30.50;2.00
2623;DHT22;1321;48.690;9.022;2022-08-14T16:02:15;30.50;15.20
2623;DHT22;1321;48.690;9.022;2022-08-14T16:04:44;30.50;4.60
2623;DHT22;1321;48.690;9.022;2022-08-14T16:07:17;30.50;3.80
2623;DHT22;1321;48.690;9.022;2022-08-14T16:09:50;30.50;3.00
2623;DHT22;1321;48.690;9.022;2022-08-14T16:12:39;30.50;3.50
2623;DHT22;1321;48.690;9.022;2022-08-14T16:15:15;30.40;4.90
2623;DHT22;1321;48.690;9.022;2022-08-14T16:17:44;30.50;3.80
2623;DHT22;1321;48.690;9.022;2022-08-14T16:20:15;30.40;3.90
2623;DHT22;1321;48.690;9.022;2022-08-14T16:23:03;30.40;2.30
2623;DHT22;1321;48.690;9.022;2022-08-14T16:25:38;30.40;3.00
2623;DHT22;1321;48.690;9.022;2022-08-14T16:28:09;30.40;2.00
2623;DHT22;1321;48.690;9.022;2022-08-14T16:30:55;30.40;2.60
2623;DHT22;1321;48.690;9.022;2022-08-14T16:33:23;30.40;4.20
2623;DHT22;1321;48.690;9.022;2022-08-14T16:36:13;30.40;2.90
2623;DHT22;1321;48.690;9.022;2022-08-14T16:38:58;30.40;1.50
2623;DHT22;1321;48.690;9.022;2022-08-14T16:41:28;30.40;2.50
2623;DHT22;1321;48.690;9.022;2022-08-14T16:43:59;30.40;3.50
2623;DHT22;1321;48.690;9.022;2022-08-14T16:46:33;30.40;3.80
2623;DHT22;1321;48.690;9.022;2022-08-14T16:49:09;30.40;2.70
2623;DHT22;1321;48.690;9.022;2022-08-14T16:51:40;30.40;3.90
2623;DHT22;1321;48.690;9.022;2022-08-14T16:54:10;30.40;3.90
2623;DHT22;1321;48.690;9.022;2022-08-14T16:57:14;30.30;2.60
2623;DHT22;1321;48.690;9.022;2022-08-14T16:59:43;30.40;2.50
2623;DHT22;1321;48.690;9.022;2022-08-14T17:02:34;30.30;3.60
2623;DHT22;1321;48.690;9.022;2022-08-14T17:05:15;30.30;3.20
2623;DHT22;1321;48.690;9.022;2022-08-14T17:08:06;30.30;3.90
2623;DHT22;1321;48.690;9.022;2022-08-14T17:11:00;30.30;3.40
2623;DHT22;1321;48.690;9.022;2022-08-14T17:13:39;30.30;3.70
2623;DHT22;1321;48.690;9.022;2022-08-14T17:16:30;30.30;2.80
2623;DHT22;1321;48.690;9.022;2022-08-14T17:19:05;30.20;4.00